createdAt,value
2019-01-25T00:00:19.392Z,45.50
2019-01-25T00:02:51.675Z,44.47
2019-01-25T00:05:22.472Z,46.77
2019-01-25T00:07:53.151Z,41.50
2019-01-25T00:10:23.960Z,41.60
2019-01-25T00:12:54.689Z,41.33
2019-01-25T00:15:25.494Z,42.10
2019-01-25T00:17:56.229Z,39.37
2019-01-25T00:20:26.997Z,39.67
2019-01-25T00:22:57.705Z,40.37
2019-01-25T00:25:28.422Z,41.10
2019-01-25T00:27:59.158Z,39.30
2019-01-25T00:30:29.908Z,34.57
2019-01-25T00:33:00.597Z,35.50
2019-01-25T00:35:31.337Z,35.60
2019-01-25T00:38:02.087Z,36.97
2019-01-25T00:40:32.825Z,35.40
2019-01-25T00:43:03.573Z,34.37
2019-01-25T00:45:34.353Z,35.33
2019-01-25T00:48:05.476Z,33.87
2019-01-25T00:50:36.253Z,34.23
2019-01-25T00:53:07.079Z,35.70
2019-01-25T00:55:37.937Z,34.50
2019-01-25T00:58:08.676Z,35.37
2019-01-25T01:00:39.530Z,33.67
2019-01-25T01:03:10.269Z,35.10
2019-01-25T01:05:40.970Z,32.67
2019-01-25T01:08:11.705Z,34.43
2019-01-25T01:10:42.381Z,32.40
2019-01-25T01:13:12.943Z,30.90
2019-01-25T01:15:43.670Z,30.33
2019-01-25T01:18:14.322Z,26.17
2019-01-25T01:20:45.048Z,27.17
2019-01-25T01:23:16.759Z,26.67
2019-01-25T01:25:47.520Z,27.20
2019-01-25T01:28:18.234Z,31.07
2019-01-25T01:30:48.970Z,30.20
2019-01-25T01:33:19.682Z,26.67
2019-01-25T01:35:50.902Z,28.30
2019-01-25T01:38:21.589Z,25.40
2019-01-25T01:40:52.318Z,29.67
2019-01-25T01:43:23.053Z,24.30
2019-01-25T01:45:53.785Z,27.07
2019-01-25T01:48:24.430Z,27.90
2019-01-25T01:50:55.090Z,29.03
2019-01-25T01:53:25.722Z,28.00
2019-01-25T01:55:56.377Z,28.07
2019-01-25T01:58:27.082Z,28.90
2019-01-25T02:00:57.809Z,29.27
2019-01-25T02:03:28.609Z,29.20
2019-01-25T02:05:59.295Z,29.07
2019-01-25T02:08:29.996Z,28.20
2019-01-25T02:11:00.663Z,26.43
2019-01-25T02:13:31.396Z,28.23
2019-01-25T02:16:02.127Z,29.80
2019-01-25T02:18:32.841Z,29.20
2019-01-25T02:21:03.576Z,30.73
2019-01-25T02:23:34.226Z,30.70
2019-01-25T02:26:04.973Z,27.60
2019-01-25T02:28:36.589Z,29.63
2019-01-25T02:31:07.207Z,28.53
2019-01-25T02:33:37.929Z,29.10
2019-01-25T02:36:08.684Z,28.87
2019-01-25T02:38:39.405Z,29.60
2019-01-25T02:41:10.093Z,29.60
2019-01-25T02:43:40.734Z,29.73
2019-01-25T02:46:11.472Z,31.50
2019-01-25T02:48:42.217Z,29.97
2019-01-25T02:51:12.971Z,30.60
2019-01-25T02:53:43.697Z,29.30
2019-01-25T02:56:14.440Z,31.87
2019-01-25T02:58:45.164Z,33.37
2019-01-25T03:01:15.839Z,31.87
2019-01-25T03:03:46.561Z,31.33
2019-01-25T03:06:17.321Z,28.90
2019-01-25T03:08:48.030Z,29.93
2019-01-25T03:11:18.689Z,31.50
2019-01-25T03:13:49.330Z,28.37
2019-01-25T03:16:20.076Z,30.43
2019-01-25T03:18:50.796Z,32.40
2019-01-25T03:21:21.696Z,31.57
2019-01-25T03:23:52.425Z,30.30
2019-01-25T03:26:23.083Z,30.57
2019-01-25T03:28:53.789Z,31.10
2019-01-25T03:31:24.525Z,30.00
2019-01-25T03:33:55.253Z,30.60
2019-01-25T03:36:26.175Z,31.20
2019-01-25T03:38:56.799Z,35.67
2019-01-25T03:41:27.556Z,35.00
2019-01-25T03:43:58.268Z,37.30
2019-01-25T03:46:29.020Z,33.97
2019-01-25T03:48:59.761Z,34.17
2019-01-25T03:51:30.415Z,32.90
2019-01-25T03:54:01.140Z,31.33
2019-01-25T03:56:31.788Z,31.90
2019-01-25T03:59:02.533Z,34.43
2019-01-25T04:01:33.258Z,30.80
2019-01-25T04:04:04.017Z,33.57
2019-01-25T04:06:34.671Z,33.37
2019-01-25T04:09:09.204Z,35.90
2019-01-25T04:11:39.837Z,32.53
2019-01-25T04:14:10.573Z,31.13
2019-01-25T04:16:41.330Z,33.23
2019-01-25T04:19:11.970Z,34.10
2019-01-25T04:21:42.612Z,32.63
2019-01-25T04:24:13.373Z,33.00
2019-01-25T04:26:44.087Z,34.63
2019-01-25T04:29:14.742Z,32.77
2019-01-25T04:31:46.069Z,30.10
2019-01-25T04:34:16.791Z,32.37
2019-01-25T04:36:47.522Z,31.47
2019-01-25T04:39:18.318Z,31.67
2019-01-25T04:41:49.035Z,30.80
2019-01-25T04:44:19.773Z,31.90
2019-01-25T04:46:50.505Z,32.40
2019-01-25T04:49:21.225Z,29.17
2019-01-25T04:51:52.021Z,27.33
2019-01-25T04:54:22.755Z,29.53
2019-01-25T04:56:53.490Z,32.73
2019-01-25T04:59:29.277Z,33.07
2019-01-25T05:01:59.914Z,33.30
2019-01-25T05:04:35.753Z,34.17
2019-01-25T05:07:06.610Z,34.80
2019-01-25T05:09:39.483Z,37.40
2019-01-25T05:12:10.133Z,33.98
2019-01-25T05:14:40.716Z,33.70
2019-01-25T05:17:11.358Z,34.93
2019-01-25T05:19:42.289Z,34.67
2019-01-25T05:22:13.010Z,35.37
2019-01-25T05:24:43.771Z,34.90
2019-01-25T05:27:14.494Z,34.67
2019-01-25T05:29:53.122Z,34.30
2019-01-25T05:32:23.673Z,32.50
2019-01-25T05:34:54.257Z,32.53
2019-01-25T05:37:24.970Z,34.27
2019-01-25T05:39:55.660Z,34.55
2019-01-25T05:42:26.405Z,34.27
2019-01-25T05:44:57.149Z,32.53
2019-01-25T05:47:27.810Z,32.40
2019-01-25T05:49:58.574Z,36.27
2019-01-25T05:52:29.301Z,34.33
2019-01-25T05:55:00.248Z,37.93
2019-01-25T05:57:30.977Z,45.70
2019-01-25T06:00:05.913Z,39.30
2019-01-25T06:02:36.547Z,41.07
2019-01-25T06:05:07.551Z,35.50
2019-01-25T06:07:38.214Z,34.03
2019-01-25T06:10:08.993Z,33.47
2019-01-25T06:12:39.650Z,33.33
2019-01-25T06:15:12.085Z,30.08
2019-01-25T06:17:42.747Z,30.77
2019-01-25T06:20:13.706Z,35.52
2019-01-25T06:22:45.649Z,32.83
2019-01-25T06:25:16.401Z,34.83
2019-01-25T06:27:47.042Z,33.20
2019-01-25T06:30:17.614Z,38.53
2019-01-25T06:32:48.249Z,36.48
2019-01-25T06:35:18.910Z,36.08
2019-01-25T06:37:50.797Z,36.90
2019-01-25T06:40:22.138Z,36.90
2019-01-25T06:42:52.773Z,35.83
2019-01-25T06:45:24.477Z,36.42
2019-01-25T06:48:15.465Z,34.90
2019-01-25T06:50:46.149Z,31.17
2019-01-25T06:53:16.876Z,34.27
2019-01-25T06:55:47.614Z,38.43
2019-01-25T06:58:34.509Z,37.17
2019-01-25T07:01:17.238Z,34.78
2019-01-25T07:03:47.970Z,34.77
2019-01-25T07:06:19.854Z,32.57
2019-01-25T07:08:50.605Z,34.60
2019-01-25T07:11:21.259Z,34.37
2019-01-25T07:13:51.971Z,38.60
2019-01-25T07:16:22.657Z,36.70
2019-01-25T07:18:53.298Z,38.07
2019-01-25T07:21:24.025Z,37.03
2019-01-25T07:23:54.690Z,39.37
2019-01-25T07:26:25.435Z,41.80
2019-01-25T07:28:56.081Z,39.40
2019-01-25T07:31:26.840Z,39.97
2019-01-25T07:33:57.550Z,37.50
2019-01-25T07:36:28.310Z,39.80
2019-01-25T07:38:59.118Z,36.77
2019-01-25T07:41:29.873Z,42.63
2019-01-25T07:44:00.604Z,40.13
2019-01-25T07:46:31.406Z,40.00
2019-01-25T07:49:02.033Z,35.23
2019-01-25T07:51:32.746Z,37.27
2019-01-25T07:54:03.467Z,39.90
2019-01-25T07:56:34.238Z,40.77
2019-01-25T07:59:05.012Z,38.43
2019-01-25T08:01:35.721Z,41.53
2019-01-25T08:04:06.558Z,40.17
2019-01-25T08:06:37.218Z,43.87
2019-01-25T08:09:09.889Z,43.40
2019-01-25T08:11:40.634Z,41.87
2019-01-25T08:14:12.866Z,42.23
2019-01-25T08:16:43.640Z,40.37
2019-01-25T08:19:14.374Z,36.73
2019-01-25T08:21:45.188Z,42.70
2019-01-25T08:24:15.875Z,39.87
2019-01-25T08:26:46.626Z,35.30
2019-01-25T08:29:17.338Z,36.00
2019-01-25T08:31:48.042Z,36.60
2019-01-25T08:34:18.742Z,38.40
2019-01-25T08:36:49.474Z,37.17
2019-01-25T08:39:20.211Z,40.67
2019-01-25T08:41:50.969Z,42.37
2019-01-25T08:44:21.610Z,45.00
2019-01-25T08:46:53.304Z,43.20
2019-01-25T08:49:24.930Z,40.40
2019-01-25T08:51:55.678Z,38.33
2019-01-25T08:54:26.358Z,39.67
2019-01-25T08:56:57.102Z,40.20
2019-01-25T08:59:27.809Z,39.07
2019-01-25T09:01:58.537Z,39.30
2019-01-25T09:04:29.190Z,38.40
2019-01-25T09:06:59.901Z,36.13
2019-01-25T09:09:30.538Z,35.90
2019-01-25T09:12:01.266Z,34.27
2019-01-25T09:14:31.982Z,35.40
2019-01-25T09:17:02.700Z,32.57
2019-01-25T09:19:33.421Z,34.27
2019-01-25T09:22:04.253Z,34.33
2019-01-25T09:24:34.898Z,39.00
2019-01-25T09:27:05.637Z,38.13
2019-01-25T09:29:36.211Z,33.77
2019-01-25T09:32:06.946Z,33.27
2019-01-25T09:34:37.654Z,31.00
2019-01-25T09:37:08.377Z,29.00
2019-01-25T09:39:39.013Z,30.97
2019-01-25T09:42:09.678Z,31.40
2019-01-25T09:44:40.310Z,30.17
2019-01-25T09:47:11.031Z,31.17
2019-01-25T09:49:41.737Z,31.67
2019-01-25T09:52:12.396Z,32.97
2019-01-25T09:54:43.009Z,31.73
2019-01-25T09:57:13.702Z,29.27
2019-01-25T09:59:44.333Z,30.33
2019-01-25T10:02:15.046Z,29.67
2019-01-25T10:04:45.753Z,28.47
2019-01-25T10:07:16.473Z,29.57
2019-01-25T10:09:47.092Z,27.60
2019-01-25T10:12:17.734Z,29.03
2019-01-25T10:14:48.443Z,31.13
2019-01-25T10:17:19.163Z,28.30
2019-01-25T10:19:49.866Z,27.00
2019-01-25T10:22:20.603Z,28.77
2019-01-25T10:24:51.289Z,28.93
2019-01-25T10:27:21.958Z,30.70
2019-01-25T10:29:52.663Z,28.93
2019-01-25T10:32:23.414Z,31.20
2019-01-25T10:34:54.130Z,28.70
2019-01-25T10:37:24.882Z,29.17
2019-01-25T10:39:55.594Z,31.07
2019-01-25T10:42:26.320Z,30.03
2019-01-25T10:44:56.948Z,26.63
2019-01-25T10:47:27.736Z,28.37
2019-01-25T10:49:59.293Z,27.50
2019-01-25T10:52:30.006Z,27.63
2019-01-25T10:55:00.705Z,26.73
2019-01-25T10:57:31.457Z,26.70
2019-01-25T11:00:02.026Z,26.27
2019-01-25T11:02:33.833Z,25.63
2019-01-25T11:05:05.634Z,27.37
2019-01-25T11:07:36.373Z,26.53
2019-01-25T11:10:07.247Z,26.80
2019-01-25T11:12:37.912Z,25.50
2019-01-25T11:15:10.922Z,27.53
2019-01-25T11:17:41.660Z,27.03
2019-01-25T11:20:14.853Z,25.83
2019-01-25T11:22:45.844Z,27.40
2019-01-25T11:25:25.716Z,26.17
2019-01-25T11:27:55.768Z,25.87
2019-01-25T11:30:26.243Z,25.77
2019-01-25T11:32:56.974Z,24.90
2019-01-25T11:35:27.686Z,25.57
2019-01-25T11:37:58.255Z,25.57
2019-01-25T11:40:31.059Z,25.13
2019-01-25T11:43:08.167Z,25.90
2019-01-25T11:45:34.084Z,24.80
2019-01-25T11:48:08.184Z,28.70
2019-01-25T11:50:38.885Z,25.23
2019-01-25T11:53:09.605Z,25.50
2019-01-25T11:55:41.299Z,25.87
2019-01-25T11:58:11.946Z,25.50
2019-01-25T12:00:45.585Z,23.47
2019-01-25T12:03:17.291Z,25.47
2019-01-25T12:05:48.001Z,23.67
2019-01-25T12:08:18.580Z,23.60
2019-01-25T12:10:49.377Z,24.43
2019-01-25T12:13:19.997Z,25.23
2019-01-25T12:15:51.452Z,22.53
2019-01-25T12:18:22.238Z,21.13
2019-01-25T12:20:52.961Z,22.53
2019-01-25T12:23:23.620Z,20.30
2019-01-25T12:25:54.348Z,24.10
2019-01-25T12:28:26.058Z,24.00
2019-01-25T12:30:56.683Z,23.83
2019-01-25T12:33:27.361Z,22.50
2019-01-25T12:35:58.069Z,23.20
2019-01-25T12:38:28.836Z,23.27
2019-01-25T12:40:59.481Z,24.77
2019-01-25T12:43:30.233Z,22.43
2019-01-25T12:46:00.853Z,24.37
2019-01-25T12:48:31.533Z,24.07
2019-01-25T12:51:13.905Z,23.30
2019-01-25T12:53:44.626Z,23.27
2019-01-25T12:56:15.331Z,22.77
2019-01-25T12:58:46.134Z,22.37
2019-01-25T13:01:16.841Z,22.23
2019-01-25T13:03:47.505Z,25.00
2019-01-25T13:06:18.208Z,23.90
2019-01-25T13:08:49.872Z,22.60
2019-01-25T13:11:20.514Z,23.63
2019-01-25T13:13:51.221Z,22.50
2019-01-25T13:16:21.935Z,23.43
2019-01-25T13:18:52.615Z,21.73
2019-01-25T13:21:23.308Z,22.80
2019-01-25T13:23:54.342Z,22.90
2019-01-25T13:26:25.448Z,23.13
2019-01-25T13:28:56.161Z,22.53
2019-01-25T13:31:26.898Z,21.27
2019-01-25T13:33:57.761Z,22.83
2019-01-25T13:36:28.413Z,21.33
2019-01-25T13:38:59.173Z,20.90
2019-01-25T13:41:29.878Z,21.93
2019-01-25T13:44:01.104Z,23.27
2019-01-25T13:46:31.911Z,22.97
2019-01-25T13:49:02.675Z,24.83
2019-01-25T13:51:33.400Z,23.80
2019-01-25T13:54:04.636Z,22.60
2019-01-25T13:56:44.217Z,21.93
2019-01-25T13:59:15.044Z,25.43
2019-01-25T14:01:45.669Z,26.97
2019-01-25T14:04:16.426Z,25.40
2019-01-25T14:06:47.127Z,25.27
2019-01-25T14:09:17.882Z,24.73
2019-01-25T14:11:48.604Z,25.33
2019-01-25T14:14:19.412Z,26.27
2019-01-25T14:16:50.125Z,23.37
2019-01-25T14:19:21.040Z,24.83
2019-01-25T14:21:52.561Z,24.27
2019-01-25T15:55:26.169Z,23.77
2019-01-25T15:57:58.931Z,24.67
2019-01-25T16:00:32.102Z,27.77
2019-01-25T16:03:05.358Z,26.40
2019-01-25T16:05:37.786Z,27.37
2019-01-25T16:08:10.726Z,46.70
2019-01-25T16:10:43.361Z,34.57
2019-01-25T16:13:15.509Z,40.10
2019-01-25T16:15:47.901Z,46.30
2019-01-25T16:18:21.269Z,47.13
2019-01-25T16:20:54.077Z,35.93
2019-01-25T16:23:26.209Z,34.13
2019-01-25T16:25:57.936Z,33.53
2019-01-25T16:28:30.612Z,31.63
2019-01-25T16:31:03.005Z,29.83
2019-01-25T16:33:35.505Z,30.00
2019-01-25T16:36:07.903Z,30.83
2019-01-25T16:38:40.584Z,27.23
2019-01-25T16:41:13.201Z,26.90
2019-01-25T16:43:45.368Z,29.77
2019-01-25T16:46:17.803Z,28.47
2019-01-25T16:48:55.685Z,27.40
2019-01-25T16:51:28.728Z,26.40
2019-01-25T16:54:01.099Z,27.83
2019-01-25T16:56:34.394Z,23.17
2019-01-25T16:59:07.029Z,19.40
2019-01-25T17:01:39.430Z,19.33
2019-01-25T17:04:12.643Z,19.07
2019-01-25T17:06:45.258Z,21.07
2019-01-25T17:09:16.001Z,17.70
2019-01-25T17:11:46.685Z,19.90
2019-01-25T17:14:17.342Z,21.77
2019-01-25T17:16:47.991Z,19.37
2019-01-25T17:19:18.733Z,20.87
2019-01-25T17:21:49.446Z,22.07
2019-01-25T17:24:20.165Z,21.83
2019-01-25T17:26:50.893Z,22.47
2019-01-25T17:29:26.056Z,22.00
2019-01-25T17:32:00.226Z,23.17
2019-01-25T17:34:34.498Z,27.20
2019-01-25T17:37:08.491Z,24.43
2019-01-25T17:39:41.570Z,23.00
2019-01-25T17:42:14.233Z,23.73
2019-01-25T17:44:47.167Z,25.50
2019-01-25T17:47:19.425Z,23.03
2019-01-25T17:49:52.145Z,21.60
2019-01-25T17:52:26.057Z,18.77
2019-01-25T17:54:57.663Z,18.80
2019-01-25T17:57:30.426Z,18.17
2019-01-25T18:00:02.990Z,17.40
2019-01-25T18:02:36.147Z,10.77
2019-01-25T18:05:09.406Z,14.40
2019-01-25T18:07:41.942Z,11.43
2019-01-25T18:10:17.149Z,15.27
2019-01-25T18:12:50.921Z,13.70
2019-01-25T18:15:24.338Z,9.50
2019-01-25T18:17:57.877Z,13.93
2019-01-25T18:20:32.432Z,10.07
2019-01-25T18:23:05.988Z,7.77
2019-01-25T18:26:02.753Z,10.10
2019-01-25T18:28:42.222Z,12.10
2019-01-25T18:31:20.072Z,11.67
2019-01-25T18:33:54.404Z,12.10
2019-01-25T18:36:26.609Z,13.20
2019-01-25T18:39:00.607Z,8.70
2019-01-25T18:41:37.049Z,9.50
2019-01-25T18:44:11.094Z,9.20
2019-01-25T18:46:45.068Z,9.00
2019-01-25T18:49:20.049Z,9.20
2019-01-25T18:51:54.799Z,10.73
2019-01-25T18:54:30.381Z,10.47
2019-01-25T18:57:05.789Z,10.90
2019-01-25T18:59:40.527Z,12.47
2019-01-25T19:02:16.626Z,8.40
2019-01-25T19:04:52.409Z,7.00
2019-01-25T19:07:31.974Z,8.67
2019-01-25T19:10:07.301Z,9.23
2019-01-25T19:12:42.239Z,8.40
2019-01-25T19:15:18.988Z,8.73
2019-01-25T19:17:54.837Z,9.20
2019-01-25T19:20:30.904Z,8.13
2019-01-25T19:23:08.667Z,18.03
2019-01-25T19:25:47.189Z,9.23
2019-01-25T19:28:22.600Z,13.20
2019-01-25T19:30:58.053Z,9.67
2019-01-25T19:33:36.234Z,9.20
2019-01-25T19:36:12.046Z,7.60
2019-01-25T19:38:48.045Z,8.23
2019-01-25T19:41:22.820Z,7.23
2019-01-25T19:43:57.776Z,9.90
2019-01-25T19:46:33.321Z,8.40
2019-01-25T19:49:08.523Z,10.07
2019-01-25T19:51:43.911Z,4.03
2019-01-25T19:54:21.421Z,6.90
2019-01-25T19:56:56.939Z,7.60
2019-01-25T19:59:32.966Z,4.17
2019-01-25T20:02:08.241Z,10.00
2019-01-25T20:04:43.266Z,9.50
2019-01-25T20:07:18.764Z,9.77
2019-01-25T20:09:54.157Z,9.90
2019-01-25T20:12:29.752Z,7.80
2019-01-25T20:15:05.845Z,10.80
2019-01-25T20:17:41.164Z,11.57
2019-01-25T20:20:19.881Z,6.00
2019-01-25T20:22:55.601Z,10.00
2019-01-25T20:25:31.464Z,6.40
2019-01-25T20:28:06.815Z,9.93
2019-01-25T20:30:49.393Z,7.57
2019-01-25T20:33:19.264Z,7.63
2019-01-25T20:35:54.253Z,9.07
2019-01-25T20:38:30.865Z,9.17
2019-01-25T20:41:07.233Z,7.27
2019-01-25T20:43:41.363Z,7.77
2019-01-25T20:46:15.538Z,8.20
2019-01-25T20:48:51.038Z,9.07
2019-01-25T20:51:26.413Z,8.70
2019-01-25T20:54:01.673Z,9.23
2019-01-25T20:56:36.461Z,8.10
2019-01-25T20:59:11.185Z,4.90
2019-01-25T21:01:45.433Z,7.93
2019-01-25T21:04:21.076Z,7.73
2019-01-25T21:06:55.773Z,7.60
2019-01-25T21:09:30.821Z,8.73
2019-01-25T21:12:07.541Z,8.43
2019-01-25T21:14:41.333Z,9.43
2019-01-25T21:17:16.227Z,9.07
2019-01-25T21:19:51.633Z,9.93
2019-01-25T21:22:26.261Z,8.63
2019-01-25T21:25:00.842Z,8.73
2019-01-25T21:27:35.018Z,8.87
2019-01-25T21:30:12.001Z,9.90
2019-01-25T21:32:46.653Z,8.93
2019-01-25T21:35:20.433Z,9.07
2019-01-25T21:37:55.573Z,9.40
2019-01-25T21:40:31.269Z,8.17
2019-01-25T21:43:05.683Z,8.67
2019-01-25T21:45:43.190Z,9.27
2019-01-25T21:48:17.677Z,8.40
2019-01-25T21:50:52.243Z,7.77
2019-01-25T21:53:25.474Z,8.60
2019-01-25T21:55:58.279Z,8.60
2019-01-25T21:58:32.201Z,8.73
2019-01-25T22:01:04.918Z,8.80
2019-01-25T22:03:38.637Z,6.60
2019-01-25T22:06:10.688Z,8.70
2019-01-25T22:08:42.625Z,8.50
2019-01-25T22:11:14.497Z,8.37
2019-01-25T22:13:52.817Z,6.20
2019-01-25T22:16:21.825Z,6.03
2019-01-25T22:18:56.334Z,7.17
2019-01-25T22:21:28.237Z,6.57
2019-01-25T22:24:00.027Z,8.63
2019-01-25T22:26:32.023Z,9.00
2019-01-25T22:29:03.761Z,9.83
2019-01-25T22:31:35.819Z,8.70
2019-01-25T22:34:07.599Z,7.93
2019-01-25T22:36:39.860Z,8.70
2019-01-25T22:39:11.278Z,8.40
2019-01-25T22:41:42.278Z,7.90
2019-01-25T22:44:13.993Z,8.40
2019-01-25T22:46:45.532Z,9.20
2019-01-25T22:49:17.378Z,8.40
2019-01-25T22:51:48.116Z,8.03
2019-01-25T22:54:18.929Z,8.90
2019-01-25T22:56:49.640Z,7.60
2019-01-25T22:59:20.325Z,8.00
2019-01-25T23:01:51.257Z,8.40
2019-01-25T23:04:57.681Z,6.63
2019-01-25T23:07:32.404Z,6.87
2019-01-25T23:10:22.727Z,7.90
2019-01-25T23:12:53.435Z,9.37
2019-01-25T23:15:24.177Z,8.40
2019-01-25T23:17:55.716Z,8.83
2019-01-25T23:20:26.409Z,5.37
2019-01-25T23:22:57.117Z,7.77
2019-01-25T23:25:27.773Z,6.80
2019-01-25T23:27:58.465Z,8.03
2019-01-25T23:30:29.989Z,6.93
2019-01-25T23:33:00.668Z,9.97
2019-01-25T23:35:31.483Z,10.37
2019-01-25T23:38:02.227Z,4.70
2019-01-25T23:40:32.971Z,9.37
2019-01-25T23:43:03.689Z,9.10
2019-01-25T23:45:34.396Z,6.10
2019-01-25T23:48:05.454Z,8.63
2019-01-25T23:50:36.256Z,7.90
2019-01-25T23:53:07.017Z,8.80
2019-01-25T23:55:37.764Z,8.73
2019-01-25T23:58:08.461Z,8.70
